Time;durP1;ratioP1;P1;durP2;ratioP2;P2;SDS_P1;SDS_P2;PMS_P1;PMS_P2;Temp;Humidity;BMP_temperature;BMP_pressure;BME280_temperature;BME280_humidity;BME280_pressure;Samples;Min_cycle;Max_cycle;Signal;HPM_P1;HPM_P2
2021/06/24 00:00:49;;;;;;;8.40;5.07;;;;;;;;;;5073933;28;20075;-75
2021/06/24 00:03:14;;;;;;;8.15;4.03;;;;;;;;;;5073937;28;20458;-76
2021/06/24 00:05:41;;;;;;;9.20;4.50;;;;;;;;;;5073381;28;20040;-76
2021/06/24 00:08:08;;;;;;;8.38;3.88;;;;;;;;;;5073325;28;20040;-75
2021/06/24 00:10:36;;;;;;;12.50;4.57;;;;;;;;;;5071513;28;20494;-76
2021/06/24 00:13:03;;;;;;;13.68;4.72;;;;;;;;;;5053077;28;20029;-75
2021/06/24 00:15:29;;;;;;;13.90;5.07;;;;;;;;;;5055316;28;20469;-76
2021/06/24 00:17:55;;;;;;;8.35;4.72;;;;;;;;;;5060180;28;20091;-76
2021/06/24 00:20:20;;;;;;;16.08;5.13;;;;;;;;;;5057836;28;20510;-76
2021/06/24 00:22:46;;;;;;;7.00;4.13;;;;;;;;;;5072381;28;20037;-76
2021/06/24 00:25:12;;;;;;;11.10;5.75;;;;;;;;;;5071836;28;20040;-76
2021/06/24 00:27:37;;;;;;;9.07;5.03;;;;;;;;;;5060024;28;20033;-76
2021/06/24 00:30:05;;;;;;;9.98;4.90;;;;;;;;;;5052198;28;20043;-76
2021/06/24 00:32:32;;;;;;;12.10;4.65;;;;;;;;;;5052993;28;20033;-76
2021/06/24 00:35:00;;;;;;;10.32;5.07;;;;;;;;;;5053357;28;20039;-76
2021/06/24 00:37:26;;;;;;;8.63;4.15;;;;;;;;;;5055473;28;20041;-76
2021/06/24 00:39:51;;;;;;;11.48;5.10;;;;;;;;;;5072801;28;20054;-75
2021/06/24 00:42:18;;;;;;;9.48;4.88;;;;;;;;;;5073184;28;20028;-76
2021/06/24 00:44:44;;;;;;;11.48;4.47;;;;;;;;;;5066048;28;20076;-76
2021/06/24 00:47:11;;;;;;;9.23;4.55;;;;;;;;;;5068508;28;20044;-76
2021/06/24 00:49:36;;;;;;;9.57;4.10;;;;;;;;;;5065263;28;20036;-76
2021/06/24 00:52:02;;;;;;;14.20;3.95;;;;;;;;;;5072773;28;20114;-76
2021/06/24 00:54:28;;;;;;;10.98;3.75;;;;;;;;;;5070668;28;20028;-76
2021/06/24 00:56:53;;;;;;;10.32;4.43;;;;;;;;;;5055236;28;20032;-76
2021/06/24 00:59:19;;;;;;;9.35;4.22;;;;;;;;;;5053087;28;20067;-76
2021/06/24 01:01:45;;;;;;;9.55;3.58;;;;;;;;;;5064308;28;20131;-76
2021/06/24 01:04:11;;;;;;;5.63;3.42;;;;;;;;;;5071938;28;20047;-76
2021/06/24 01:06:36;;;;;;;10.52;3.90;;;;;;;;;;5071156;28;20032;-76
2021/06/24 01:09:04;;;;;;;14.60;4.32;;;;;;;;;;5055587;28;20036;-76
2021/06/24 01:11:29;;;;;;;9.73;4.30;;;;;;;;;;5052996;28;20035;-76
2021/06/24 01:13:55;;;;;;;7.78;4.22;;;;;;;;;;5051595;28;20040;-76
2021/06/24 01:16:21;;;;;;;8.27;3.78;;;;;;;;;;5051323;28;20029;-76
2021/06/24 01:18:49;;;;;;;8.88;3.95;;;;;;;;;;5064364;28;20047;-76
2021/06/24 01:21:16;;;;;;;8.60;3.80;;;;;;;;;;5068315;28;20029;-75
2021/06/24 01:23:43;;;;;;;5.00;3.10;;;;;;;;;;5054133;28;20475;-76
2021/06/24 01:26:13;;;;;;;7.57;3.42;;;;;;;;;;5072163;28;20024;-76
2021/06/24 01:28:39;;;;;;;6.50;3.53;;;;;;;;;;5066031;28;20040;-76
2021/06/24 01:31:05;;;;;;;5.45;3.20;;;;;;;;;;5066671;28;20036;-75
2021/06/24 01:33:31;;;;;;;8.95;4.20;;;;;;;;;;5066300;28;20063;-76
2021/06/24 01:36:04;;;;;;;10.45;3.92;;;;;;;;;;5071487;28;20116;-75
2021/06/24 01:38:33;;;;;;;8.68;4.38;;;;;;;;;;5060382;28;20067;-75
2021/06/24 01:41:10;;;;;;;13.25;4.18;;;;;;;;;;5071116;28;20028;-76
2021/06/24 01:43:35;;;;;;;9.43;3.83;;;;;;;;;;5071267;28;20035;-76
2021/06/24 01:46:01;;;;;;;11.50;4.38;;;;;;;;;;5058897;28;20044;-75
2021/06/24 01:48:27;;;;;;;6.70;3.80;;;;;;;;;;5071875;28;20117;-75
2021/06/24 01:50:54;;;;;;;11.30;4.45;;;;;;;;;;5071900;28;20067;-75
2021/06/24 01:53:19;;;;;;;5.30;3.45;;;;;;;;;;5056312;28;20029;-75
2021/06/24 01:55:46;;;;;;;6.28;3.25;;;;;;;;;;5071531;28;20072;-76
2021/06/24 01:58:21;;;;;;;10.05;3.55;;;;;;;;;;5059026;28;20410;-75
2021/06/24 02:01:02;;;;;;;7.28;3.50;;;;;;;;;;5086088;28;20025;-78
2021/06/24 02:03:37;;;;;;;6.80;3.95;;;;;;;;;;5070827;28;20035;-76
2021/06/24 02:06:04;;;;;;;12.23;3.47;;;;;;;;;;5074562;28;20424;-76
2021/06/24 02:08:35;;;;;;;7.70;4.30;;;;;;;;;;5074631;28;20032;-76
2021/06/24 02:11:07;;;;;;;;;;;;;;;;;;5076206;28;20047;-76
2021/06/24 02:13:36;;;;;;;4.95;3.17;;;;;;;;;;5074070;28;19918;-76
2021/06/24 02:16:06;;;;;;;6.75;3.40;;;;;;;;;;5071255;28;20124;-75
2021/06/24 02:18:32;;;;;;;6.50;3.30;;;;;;;;;;5068223;28;20111;-76
2021/06/24 02:21:02;;;;;;;9.52;3.55;;;;;;;;;;5074552;28;20025;-76
2021/06/24 02:23:37;;;;;;;5.65;3.40;;;;;;;;;;5059030;28;20086;-75
2021/06/24 02:26:23;;;;;;;6.68;3.33;;;;;;;;;;5075807;28;20036;-76
2021/06/24 02:28:55;;;;;;;9.55;4.28;;;;;;;;;;5068788;28;20037;-76
2021/06/24 02:31:27;;;;;;;7.90;3.65;;;;;;;;;;5064900;28;20375;-75
2021/06/24 02:33:55;;;;;;;10.57;3.80;;;;;;;;;;5057967;28;20463;-75
2021/06/24 02:36:41;;;;;;;;;;;;;;;;;;5072191;28;20479;-75
2021/06/24 02:39:07;;;;;;;7.00;3.42;;;;;;;;;;5054472;28;19913;-75
2021/06/24 02:41:35;;;;;;;8.48;3.60;;;;;;;;;;5068911;28;20066;-75
2021/06/24 02:44:04;;;;;;;5.80;3.25;;;;;;;;;;5053958;28;20444;-75
2021/06/24 02:46:29;;;;;;;10.15;4.00;;;;;;;;;;5055042;28;20037;-75
2021/06/24 02:48:56;;;;;;;6.70;3.88;;;;;;;;;;5070692;28;20033;-74
2021/06/24 02:51:34;;;;;;;6.38;3.10;;;;;;;;;;5059000;28;20038;-77
2021/06/24 02:54:17;;;;;;;3.53;2.90;;;;;;;;;;5069425;28;20032;-74
2021/06/24 02:56:45;;;;;;;6.68;3.70;;;;;;;;;;5072998;28;20067;-77
2021/06/24 02:59:31;;;;;;;5.13;3.03;;;;;;;;;;5075123;28;20068;-76
2021/06/24 03:01:58;;;;;;;8.77;3.03;;;;;;;;;;5069708;28;20032;-75
2021/06/24 03:04:31;;;;;;;12.07;3.90;;;;;;;;;;5066318;28;20094;-75
2021/06/24 03:06:56;;;;;;;10.38;4.15;;;;;;;;;;5074519;28;20386;-76
2021/06/24 03:09:26;;;;;;;6.55;3.47;;;;;;;;;;5074948;28;20113;-75
2021/06/24 03:11:51;;;;;;;11.55;4.18;;;;;;;;;;5065001;28;20129;-76
2021/06/24 03:14:18;;;;;;;16.40;4.97;;;;;;;;;;5071534;28;20115;-76
2021/06/24 03:16:46;;;;;;;9.23;4.43;;;;;;;;;;5073434;28;20036;-76
2021/06/24 03:19:18;;;;;;;8.88;4.03;;;;;;;;;;5073103;28;20386;-76
2021/06/24 03:22:10;;;;;;;6.57;4.70;;;;;;;;;;5074365;28;20049;-76
2021/06/24 03:24:50;;;;;;;11.52;4.18;;;;;;;;;;5072780;28;20039;-76
2021/06/24 03:27:16;;;;;;;10.43;3.60;;;;;;;;;;5073397;28;20039;-76
2021/06/24 03:30:10;;;;;;;8.55;4.40;;;;;;;;;;5074498;28;20441;-75
2021/06/24 03:32:36;;;;;;;9.50;3.70;;;;;;;;;;5068758;28;20033;-75
2021/06/24 03:35:01;;;;;;;9.18;4.35;;;;;;;;;;5066134;28;20036;-76
2021/06/24 03:37:28;;;;;;;12.77;4.28;;;;;;;;;;5062581;28;20029;-76
2021/06/24 03:39:53;;;;;;;10.35;3.92;;;;;;;;;;5054249;28;20029;-76
2021/06/24 03:42:21;;;;;;;7.05;3.58;;;;;;;;;;5052920;28;20029;-76
2021/06/24 03:44:46;;;;;;;6.87;3.57;;;;;;;;;;5054155;28;20041;-76
2021/06/24 03:47:12;;;;;;;8.15;3.60;;;;;;;;;;5054052;28;20124;-76
2021/06/24 03:49:39;;;;;;;9.10;3.70;;;;;;;;;;5052660;28;20033;-76
2021/06/24 03:52:04;;;;;;;9.00;3.88;;;;;;;;;;5060208;28;20032;-75
2021/06/24 03:54:31;;;;;;;13.98;3.85;;;;;;;;;;5073821;28;20433;-75
2021/06/24 03:56:57;;;;;;;8.88;3.38;;;;;;;;;;5072285;28;20103;-76
2021/06/24 03:59:26;;;;;;;8.10;3.30;;;;;;;;;;5072630;28;20074;-76
2021/06/24 04:01:55;;;;;;;7.38;3.85;;;;;;;;;;5072156;28;20123;-76
2021/06/24 04:04:21;;;;;;;7.13;3.88;;;;;;;;;;5061509;28;20032;-76
2021/06/24 04:06:54;;;;;;;9.80;4.32;;;;;;;;;;5072631;28;20099;-76
2021/06/24 04:09:20;;;;;;;7.55;4.68;;;;;;;;;;5073643;28;20119;-76
2021/06/24 04:11:46;;;;;;;8.20;5.38;;;;;;;;;;5072523;28;20051;-76
2021/06/24 04:14:48;;;;;;;7.68;3.85;;;;;;;;;;5068450;28;20067;-76
2021/06/24 04:17:24;;;;;;;7.45;4.53;;;;;;;;;;5072141;28;20056;-76
2021/06/24 04:19:53;;;;;;;13.55;4.15;;;;;;;;;;5065101;28;20120;-75
2021/06/24 04:22:19;;;;;;;9.30;3.88;;;;;;;;;;5070285;28;20033;-76
2021/06/24 04:25:11;;;;;;;6.63;3.42;;;;;;;;;;5065282;28;20032;-76
2021/06/24 04:27:37;;;;;;;12.65;4.53;;;;;;;;;;5055272;28;20110;-76
2021/06/24 04:30:04;;;;;;;7.57;4.32;;;;;;;;;;5069465;28;20074;-76
2021/06/24 04:32:33;;;;;;;11.30;4.82;;;;;;;;;;5069382;28;20028;-76
2021/06/24 04:34:59;;;;;;;8.50;4.38;;;;;;;;;;5060760;28;20615;-76
2021/06/24 04:37:24;;;;;;;10.40;4.32;;;;;;;;;;5053054;28;20120;-76
2021/06/24 04:39:50;;;;;;;9.27;4.30;;;;;;;;;;5052260;28;20067;-76
2021/06/24 04:42:23;;;;;;;7.00;3.60;;;;;;;;;;5069092;28;20028;-76
2021/06/24 04:45:07;;;;;;;10.45;4.25;;;;;;;;;;5071771;28;20102;-76
2021/06/24 04:47:40;;;;;;;11.73;4.03;;;;;;;;;;5071882;28;20036;-76
2021/06/24 04:50:06;;;;;;;13.68;4.75;;;;;;;;;;5073253;28;20044;-76
2021/06/24 04:52:49;;;;;;;7.82;3.90;;;;;;;;;;5079926;28;20395;-76
2021/06/24 04:55:20;;;;;;;5.50;3.53;;;;;;;;;;5065462;28;20060;-76
2021/06/24 04:57:47;;;;;;;8.05;3.45;;;;;;;;;;5076397;28;20094;-76
2021/06/24 05:00:33;;;;;;;9.38;3.70;;;;;;;;;;5081256;28;20090;-76
2021/06/24 05:03:17;;;;;;;7.18;3.60;;;;;;;;;;5077090;28;20075;-76
2021/06/24 05:05:47;;;;;;;8.82;3.20;;;;;;;;;;5072928;28;20036;-75
2021/06/24 05:08:16;;;;;;;12.13;3.78;;;;;;;;;;5072828;28;20374;-75
2021/06/24 05:10:42;;;;;;;8.90;3.15;;;;;;;;;;5073056;28;20032;-75
2021/06/24 05:13:07;;;;;;;6.90;3.25;;;;;;;;;;5072758;28;20040;-76
2021/06/24 05:15:34;;;;;;;4.70;2.50;;;;;;;;;;5073180;28;20039;-76
2021/06/24 05:18:00;;;;;;;5.75;3.15;;;;;;;;;;5073525;28;20085;-76
2021/06/24 05:20:25;;;;;;;10.80;3.58;;;;;;;;;;5077082;28;20443;-77
2021/06/24 05:22:51;;;;;;;4.65;2.88;;;;;;;;;;5076967;28;20089;-76
2021/06/24 05:25:16;;;;;;;10.50;3.85;;;;;;;;;;5078034;28;20040;-78
2021/06/24 05:27:42;;;;;;;5.32;3.05;;;;;;;;;;5076165;28;20162;-76
2021/06/24 05:30:08;;;;;;;5.32;2.97;;;;;;;;;;5079068;28;20099;-77
2021/06/24 05:32:33;;;;;;;5.72;3.30;;;;;;;;;;5076565;28;20501;-76
2021/06/24 05:34:59;;;;;;;8.60;3.85;;;;;;;;;;5076933;28;20048;-76
2021/06/24 05:37:24;;;;;;;6.25;3.00;;;;;;;;;;5075968;28;20043;-76
2021/06/24 05:39:49;;;;;;;7.78;2.92;;;;;;;;;;5075298;28;20041;-76
2021/06/24 05:42:15;;;;;;;7.00;3.17;;;;;;;;;;5076513;28;20055;-76
2021/06/24 05:44:40;;;;;;;6.82;3.15;;;;;;;;;;5075712;28;20094;-76
2021/06/24 05:47:06;;;;;;;7.82;3.25;;;;;;;;;;5075936;28;20056;-77
2021/06/24 05:49:31;;;;;;;6.55;2.90;;;;;;;;;;5075642;28;20041;-77
2021/06/24 05:51:57;;;;;;;8.57;3.38;;;;;;;;;;5076105;28;20032;-74
2021/06/24 05:54:22;;;;;;;4.78;2.90;;;;;;;;;;5075831;28;20090;-75
2021/06/24 05:56:48;;;;;;;6.72;3.63;;;;;;;;;;5074947;28;20103;-76
2021/06/24 05:59:14;;;;;;;10.10;3.47;;;;;;;;;;5073529;28;20025;-76
2021/06/24 06:01:46;;;;;;;7.82;2.92;;;;;;;;;;5075119;28;20490;-75
2021/06/24 06:04:12;;;;;;;5.35;3.13;;;;;;;;;;5076590;28;20029;-75
2021/06/24 06:06:38;;;;;;;7.63;3.10;;;;;;;;;;5076192;28;20073;-75
2021/06/24 06:09:04;;;;;;;7.20;3.15;;;;;;;;;;5075113;28;20142;-75
2021/06/24 06:11:29;;;;;;;7.50;2.88;;;;;;;;;;5075896;28;20060;-75
2021/06/24 06:13:55;;;;;;;12.13;3.42;;;;;;;;;;5074887;28;20502;-75
2021/06/24 06:16:20;;;;;;;11.90;3.65;;;;;;;;;;5075777;28;20085;-75
2021/06/24 06:18:46;;;;;;;6.40;3.20;;;;;;;;;;5075649;28;20508;-75
2021/06/24 06:21:11;;;;;;;5.18;2.80;;;;;;;;;;5076000;28;20068;-75
2021/06/24 06:23:36;;;;;;;10.15;3.47;;;;;;;;;;5074914;28;20029;-75
2021/06/24 06:26:02;;;;;;;4.45;2.80;;;;;;;;;;5075591;28;20036;-74
2021/06/24 06:28:27;;;;;;;8.73;3.30;;;;;;;;;;5074992;28;20037;-74
2021/06/24 06:30:54;;;;;;;6.35;2.78;;;;;;;;;;5073528;28;20040;-74
2021/06/24 06:33:21;;;;;;;10.55;3.33;;;;;;;;;;5075392;28;20123;-74
2021/06/24 06:35:47;;;;;;;6.18;3.10;;;;;;;;;;5074406;28;20040;-74
2021/06/24 06:38:13;;;;;;;9.20;3.67;;;;;;;;;;5075367;28;20029;-75
2021/06/24 06:40:40;;;;;;;10.25;3.00;;;;;;;;;;5074806;28;20139;-74
2021/06/24 06:43:05;;;;;;;10.68;3.75;;;;;;;;;;5073829;28;20051;-75
2021/06/24 06:45:33;;;;;;;9.02;3.75;;;;;;;;;;5075095;28;20037;-75
2021/06/24 06:47:59;;;;;;;8.32;3.20;;;;;;;;;;5074878;28;20363;-75
2021/06/24 06:50:25;;;;;;;9.05;3.33;;;;;;;;;;5075362;28;20046;-74
2021/06/24 06:52:50;;;;;;;173.55;125.40;;;;;;;;;;5075121;28;20457;-74
2021/06/24 06:55:16;;;;;;;44.55;28.77;;;;;;;;;;5074599;28;20409;-74
2021/06/24 06:57:41;;;;;;;14.18;6.78;;;;;;;;;;5075408;28;20036;-72
2021/06/24 07:00:09;;;;;;;9.18;5.03;;;;;;;;;;5073801;28;20036;-72
2021/06/24 07:02:35;;;;;;;12.27;4.60;;;;;;;;;;5075253;28;20020;-72
2021/06/24 07:05:00;;;;;;;8.30;4.78;;;;;;;;;;5074804;28;20478;-74
2021/06/24 07:07:26;;;;;;;10.48;3.83;;;;;;;;;;5082726;28;20036;-79
2021/06/24 07:09:53;;;;;;;11.68;6.18;;;;;;;;;;5080839;28;20043;-85
2021/06/24 07:12:18;;;;;;;14.80;8.40;;;;;;;;;;5079439;28;20119;-83
2021/06/24 07:14:44;;;;;;;34.30;17.75;;;;;;;;;;5081146;28;20067;-82
2021/06/24 07:17:09;;;;;;;8.00;5.22;;;;;;;;;;5083268;28;20439;-82
2021/06/24 07:19:34;;;;;;;18.13;9.30;;;;;;;;;;5080341;28;20040;-83
2021/06/24 07:22:00;;;;;;;12.50;6.53;;;;;;;;;;5079904;28;20040;-82
2021/06/24 07:24:25;;;;;;;9.32;4.55;;;;;;;;;;5081212;28;20115;-82
2021/06/24 07:26:51;;;;;;;7.43;3.72;;;;;;;;;;5080881;28;20129;-84
2021/06/24 07:29:16;;;;;;;10.85;3.83;;;;;;;;;;5078171;28;20029;-83
2021/06/24 07:31:42;;;;;;;8.43;3.90;;;;;;;;;;5081595;28;20036;-80
2021/06/24 07:34:07;;;;;;;8.55;3.47;;;;;;;;;;5078906;28;20045;-82
2021/06/24 07:36:33;;;;;;;36.55;17.85;;;;;;;;;;5079686;28;20115;-82
2021/06/24 07:38:58;;;;;;;15.00;7.78;;;;;;;;;;5075922;28;20041;-74
2021/06/24 07:41:24;;;;;;;10.25;4.70;;;;;;;;;;5074340;28;20094;-72
2021/06/24 07:43:53;;;;;;;12.55;4.63;;;;;;;;;;5072906;28;20402;-72
2021/06/24 07:46:20;;;;;;;31.42;6.22;;;;;;;;;;5073022;28;20036;-74
2021/06/24 07:48:47;;;;;;;134.30;83.20;;;;;;;;;;5073999;28;20043;-78
2021/06/24 07:51:13;;;;;;;706.45;77.97;;;;;;;;;;5077537;28;20043;-79
2021/06/24 07:53:42;;;;;;;83.10;14.20;;;;;;;;;;5076924;28;20032;-79
2021/06/24 07:56:13;;;;;;;19.35;5.38;;;;;;;;;;5076398;28;20032;-78
2021/06/24 07:58:41;;;;;;;16.38;5.10;;;;;;;;;;5076174;28;20055;-79
2021/06/24 08:01:08;;;;;;;581.03;265.33;;;;;;;;;;5074403;28;20032;-75
2021/06/24 08:03:37;;;;;;;65.82;29.50;;;;;;;;;;5073303;28;20462;-76
2021/06/24 08:06:06;;;;;;;21.20;6.93;;;;;;;;;;5073884;28;20046;-75
2021/06/24 08:08:32;;;;;;;49.05;7.93;;;;;;;;;;5074541;28;20123;-76
2021/06/24 08:10:58;;;;;;;50.75;5.50;;;;;;;;;;5074232;28;20119;-77
2021/06/24 08:13:26;;;;;;;82.43;29.73;;;;;;;;;;5073603;28;20082;-76
2021/06/24 08:15:52;;;;;;;13.63;7.18;;;;;;;;;;5074375;28;20028;-77
2021/06/24 08:18:19;;;;;;;125.38;13.25;;;;;;;;;;5074137;28;20467;-77
2021/06/24 08:20:45;;;;;;;77.15;38.65;;;;;;;;;;5074421;28;20119;-77
2021/06/24 08:23:11;;;;;;;54.13;27.20;;;;;;;;;;5075083;28;20033;-76
2021/06/24 08:25:36;;;;;;;438.95;166.25;;;;;;;;;;5072899;28;20029;-76
2021/06/24 08:28:02;;;;;;;43.08;18.77;;;;;;;;;;5073885;28;20479;-76
2021/06/24 08:30:27;;;;;;;22.45;6.13;;;;;;;;;;5073349;28;20031;-76
2021/06/24 08:32:53;;;;;;;89.68;17.10;;;;;;;;;;5055139;28;20109;-76
2021/06/24 08:35:18;;;;;;;55.75;17.48;;;;;;;;;;5073055;28;20036;-76
2021/06/24 08:37:44;;;;;;;16.45;7.68;;;;;;;;;;5073531;28;20040;-76
2021/06/24 08:40:11;;;;;;;61.92;12.60;;;;;;;;;;5072458;28;20035;-76
2021/06/24 08:42:38;;;;;;;384.13;50.65;;;;;;;;;;5071812;28;20043;-76
2021/06/24 08:45:06;;;;;;;1168.25;146.98;;;;;;;;;;5070469;28;20105;-77
2021/06/24 08:47:32;;;;;;;248.98;136.43;;;;;;;;;;5074753;28;20041;-78
2021/06/24 08:49:59;;;;;;;370.40;172.38;;;;;;;;;;5074138;28;20067;-77
2021/06/24 08:52:26;;;;;;;412.65;71.72;;;;;;;;;;5075988;28;20029;-77
2021/06/24 08:54:51;;;;;;;70.30;24.08;;;;;;;;;;5074671;28;20469;-76
2021/06/24 08:57:17;;;;;;;223.32;28.40;;;;;;;;;;5073420;28;20085;-78
2021/06/24 08:59:45;;;;;;;24.05;10.07;;;;;;;;;;5073528;28;20086;-77
2021/06/24 09:02:13;;;;;;;148.90;24.42;;;;;;;;;;5072009;28;20040;-75
2021/06/24 09:04:44;;;;;;;72.80;15.27;;;;;;;;;;5071921;28;20123;-76
2021/06/24 09:07:22;;;;;;;93.25;28.58;;;;;;;;;;5073182;28;20054;-76
2021/06/24 09:09:56;;;;;;;328.60;41.10;;;;;;;;;;5072734;28;20052;-76
2021/06/24 09:12:23;;;;;;;128.25;34.55;;;;;;;;;;5072847;28;20067;-75
2021/06/24 09:14:53;;;;;;;19.08;8.30;;;;;;;;;;5072779;28;20064;-77
2021/06/24 09:17:37;;;;;;;25.95;9.88;;;;;;;;;;5072739;28;20462;-78
2021/06/24 09:20:23;;;;;;;13.48;6.95;;;;;;;;;;5075241;28;20058;-79
2021/06/24 09:23:03;;;;;;;15.20;7.32;;;;;;;;;;5074968;28;20039;-77
2021/06/24 09:25:28;;;;;;;213.18;28.13;;;;;;;;;;5075029;28;20111;-77
2021/06/24 09:27:55;;;;;;;400.92;244.27;;;;;;;;;;5077520;28;20068;-78
2021/06/24 09:30:32;;;;;;;89.45;49.35;;;;;;;;;;5079745;28;20054;-77
2021/06/24 09:33:07;;;;;;;54.53;25.08;;;;;;;;;;5078447;28;20037;-75
2021/06/24 09:35:32;;;;;;;23.03;8.87;;;;;;;;;;5074253;28;20044;-76
2021/06/24 09:38:00;;;;;;;16.73;7.65;;;;;;;;;;5072923;28;20081;-78
2021/06/24 09:40:55;;;;;;;19.10;7.50;;;;;;;;;;5073655;28;20364;-77
2021/06/24 09:43:27;;;;;;;15.50;7.53;;;;;;;;;;5068281;28;20049;-77
2021/06/24 09:46:30;;;;;;;12.18;7.50;;;;;;;;;;5076876;28;20048;-77
2021/06/24 09:49:00;;;;;;;15.02;7.53;;;;;;;;;;5052260;28;20515;-77
2021/06/24 09:51:34;;;;;;;21.92;11.90;;;;;;;;;;5067718;28;20434;-77
2021/06/24 09:54:03;;;;;;;17.95;9.95;;;;;;;;;;5071606;28;20522;-78
2021/06/24 09:56:33;;;;;;;93.82;57.60;;;;;;;;;;5075514;28;20033;-78
2021/06/24 09:59:04;;;;;;;18.13;10.23;;;;;;;;;;5074718;28;20040;-76
2021/06/24 10:01:47;;;;;;;16.35;7.40;;;;;;;;;;5079016;28;20032;-78
2021/06/24 10:04:31;;;;;;;78.57;43.10;;;;;;;;;;5081083;28;20024;-77
2021/06/24 10:06:59;;;;;;;48.47;21.35;;;;;;;;;;5083162;28;20052;-85
2021/06/24 10:09:26;;;;;;;13.48;7.90;;;;;;;;;;5082780;28;20054;-80
2021/06/24 10:11:52;;;;;;;17.40;8.00;;;;;;;;;;5080127;28;20363;-79
2021/06/24 10:14:19;;;;;;;25.10;9.45;;;;;;;;;;5078259;28;20068;-76
2021/06/24 10:16:50;;;;;;;19.85;12.68;;;;;;;;;;5075334;28;20032;-76
2021/06/24 10:19:17;;;;;;;122.10;93.35;;;;;;;;;;5076456;28;20043;-76
2021/06/24 10:21:49;;;;;;;18.35;10.57;;;;;;;;;;5076507;28;20044;-76
2021/06/24 10:24:19;;;;;;;120.57;89.00;;;;;;;;;;5074052;28;20123;-76
2021/06/24 10:26:50;;;;;;;44.47;30.05;;;;;;;;;;5076408;28;20054;-76
2021/06/24 10:29:23;;;;;;;26.98;18.70;;;;;;;;;;5076347;28;20463;-77
2021/06/24 10:31:55;;;;;;;241.82;183.07;;;;;;;;;;5075767;28;20556;-77
2021/06/24 10:34:21;;;;;;;35.17;26.40;;;;;;;;;;5074738;28;20043;-76
2021/06/24 10:37:12;;;;;;;12.77;8.90;;;;;;;;;;5075245;28;20028;-76
2021/06/24 10:39:40;;;;;;;12.93;6.55;;;;;;;;;;5076318;28;20089;-77
2021/06/24 10:42:15;;;;;;;10.13;6.35;;;;;;;;;;5075251;28;20367;-76
2021/06/24 10:44:43;;;;;;;12.57;5.55;;;;;;;;;;5075549;28;20052;-77
2021/06/24 10:47:09;;;;;;;67.97;10.15;;;;;;;;;;5076128;28;20371;-76
2021/06/24 10:49:35;;;;;;;12.40;5.45;;;;;;;;;;5074782;28;20036;-76
2021/06/24 10:52:26;;;;;;;18.40;6.60;;;;;;;;;;5077217;28;20031;-76
2021/06/24 10:54:59;;;;;;;9.13;3.67;;;;;;;;;;5075826;28;20081;-75
2021/06/24 10:57:38;;;;;;;12.38;5.50;;;;;;;;;;5076159;28;20032;-77
2021/06/24 11:00:34;;;;;;;18.75;7.80;;;;;;;;;;5077011;28;20071;-76
2021/06/24 11:03:04;;;;;;;15.98;5.03;;;;;;;;;;5075863;28;20120;-75
2021/06/24 11:05:40;;;;;;;10.48;4.68;;;;;;;;;;5074234;28;20055;-76
2021/06/24 11:08:13;;;;;;;14.85;4.43;;;;;;;;;;5075040;28;20094;-76
2021/06/24 11:10:58;;;;;;;10.35;4.22;;;;;;;;;;5075678;28;20056;-76
2021/06/24 11:13:39;;;;;;;45.38;26.75;;;;;;;;;;5077167;28;20401;-76
2021/06/24 11:16:20;;;;;;;10.52;5.05;;;;;;;;;;5074286;28;20475;-76
2021/06/24 11:18:51;;;;;;;6.85;3.88;;;;;;;;;;5076618;28;20044;-76
2021/06/24 11:21:21;;;;;;;10.38;4.40;;;;;;;;;;5075062;28;20433;-75
2021/06/24 11:23:55;;;;;;;18.83;4.25;;;;;;;;;;5073786;28;20036;-75
2021/06/24 11:26:29;;;;;;;7.95;3.63;;;;;;;;;;5076114;28;20043;-76
2021/06/24 11:29:03;;;;;;;13.90;4.05;;;;;;;;;;5076255;28;20939;-76
2021/06/24 11:34:27;;;;;;;501.20;316.58;;;;;;;;;;5076212;28;20033;-75
2021/06/24 11:36:54;;;;;;;165.45;89.05;;;;;;;;;;5076381;28;20047;-75
2021/06/24 11:39:30;;;;;;;19.52;10.30;;;;;;;;;;5076636;28;20048;-75
2021/06/24 11:41:58;;;;;;;21.70;10.13;;;;;;;;;;5075128;28;20040;-75
2021/06/24 11:44:28;;;;;;;13.60;5.55;;;;;;;;;;5074539;28;20036;-75
2021/06/24 11:46:56;;;;;;;6.47;3.58;;;;;;;;;;5073917;28;20087;-75
2021/06/24 11:49:35;;;;;;;7.47;4.10;;;;;;;;;;5074162;28;20041;-75
2021/06/24 12:03:20;;;;;;;8.63;3.97;;;;;;;;;;5075831;28;20043;-74
2021/06/24 12:05:53;;;;;;;9.32;3.78;;;;;;;;;;5075448;28;20040;-75
2021/06/24 12:08:20;;;;;;;8.38;4.22;;;;;;;;;;5074313;28;20037;-72
2021/06/24 12:10:46;;;;;;;7.68;3.45;;;;;;;;;;5073140;28;20032;-73
2021/06/24 12:13:11;;;;;;;6.05;3.00;;;;;;;;;;5072610;28;20436;-75
2021/06/24 12:15:37;;;;;;;8.35;3.60;;;;;;;;;;5075062;28;20438;-74
2021/06/24 12:18:03;;;;;;;8.02;3.33;;;;;;;;;;5073573;28;20035;-75
2021/06/24 12:20:28;;;;;;;7.07;3.30;;;;;;;;;;5075111;28;20048;-74
2021/06/24 12:22:59;;;;;;;9.05;3.08;;;;;;;;;;5058091;28;20047;-74
2021/06/24 12:25:31;;;;;;;5.85;3.22;;;;;;;;;;5076054;28;20135;-76
2021/06/24 12:28:04;;;;;;;8.70;3.65;;;;;;;;;;5075979;28;20036;-75
2021/06/24 12:30:35;;;;;;;8.45;3.03;;;;;;;;;;5077467;28;20041;-75
2021/06/24 12:33:04;;;;;;;403.75;27.75;;;;;;;;;;5080656;28;20024;-75
2021/06/24 12:35:35;;;;;;;18.73;4.38;;;;;;;;;;5077401;28;20040;-74
2021/06/24 12:38:08;;;;;;;18.30;4.28;;;;;;;;;;5080855;28;20038;-77
2021/06/24 12:40:39;;;;;;;6.93;3.60;;;;;;;;;;5080066;28;20123;-77
2021/06/24 12:43:06;;;;;;;8.35;3.35;;;;;;;;;;5079485;28;20051;-76
2021/06/24 12:45:35;;;;;;;9.68;3.60;;;;;;;;;;5079005;28;20072;-76
2021/06/24 12:48:02;;;;;;;13.63;3.30;;;;;;;;;;5076399;28;20135;-74
2021/06/24 12:50:33;;;;;;;7.50;3.45;;;;;;;;;;5072442;28;20044;-75
2021/06/24 12:53:01;;;;;;;10.52;3.95;;;;;;;;;;5071623;28;20043;-76
2021/06/24 12:55:45;;;;;;;7.35;3.60;;;;;;;;;;5051635;28;20079;-78
2021/06/24 12:58:21;;;;;;;5.30;3.08;;;;;;;;;;5068877;28;20039;-77
2021/06/24 13:00:56;;;;;;;7.13;3.45;;;;;;;;;;5052819;28;20065;-75
2021/06/24 13:03:35;;;;;;;10.27;3.85;;;;;;;;;;5053232;28;20033;-74
2021/06/24 13:06:13;;;;;;;8.15;3.40;;;;;;;;;;5055458;28;20477;-74
2021/06/24 13:09:06;;;;;;;5.90;3.10;;;;;;;;;;5069718;28;20028;-74
2021/06/24 13:11:36;;;;;;;5.80;3.78;;;;;;;;;;5062332;28;20052;-74
2021/06/24 13:14:13;;;;;;;7.90;4.22;;;;;;;;;;5072467;28;20040;-74
2021/06/24 13:16:48;;;;;;;8.18;4.53;;;;;;;;;;5069808;28;20036;-74
2021/06/24 13:19:28;;;;;;;7.88;4.22;;;;;;;;;;5070921;28;20165;-74
2021/06/24 13:22:10;;;;;;;8.80;4.80;;;;;;;;;;5071999;28;20039;-74
2021/06/24 13:24:44;;;;;;;8.23;3.80;;;;;;;;;;5071994;28;20112;-74
2021/06/24 13:27:12;;;;;;;9.20;4.38;;;;;;;;;;5070396;28;20072;-74
2021/06/24 13:29:40;;;;;;;9.50;4.50;;;;;;;;;;5071005;28;20475;-74
2021/06/24 13:32:08;;;;;;;8.27;4.50;;;;;;;;;;5071149;28;20033;-74
2021/06/24 13:34:39;;;;;;;12.27;5.13;;;;;;;;;;5072791;28;20048;-74
2021/06/24 13:37:16;;;;;;;13.23;5.45;;;;;;;;;;5070833;28;20162;-74
2021/06/24 13:39:42;;;;;;;10.43;4.57;;;;;;;;;;5074745;28;20036;-74
2021/06/24 13:42:07;;;;;;;10.18;4.78;;;;;;;;;;5069913;28;20051;-74
2021/06/24 13:44:33;;;;;;;8.30;4.47;;;;;;;;;;5060593;28;20048;-74
2021/06/24 13:46:59;;;;;;;14.82;4.85;;;;;;;;;;5063800;28;20041;-74
2021/06/24 13:49:25;;;;;;;8.63;4.45;;;;;;;;;;5056426;28;20029;-74
2021/06/24 13:51:53;;;;;;;8.63;4.45;;;;;;;;;;5056313;28;20072;-74
2021/06/24 13:54:24;;;;;;;13.65;4.95;;;;;;;;;;5056177;28;20032;-74
2021/06/24 13:56:52;;;;;;;11.40;5.00;;;;;;;;;;5070801;28;20033;-74
2021/06/24 13:59:18;;;;;;;11.88;5.20;;;;;;;;;;5069225;28;20033;-74
2021/06/24 14:01:45;;;;;;;10.23;4.40;;;;;;;;;;5062776;28;20033;-74
2021/06/24 14:04:11;;;;;;;10.45;4.72;;;;;;;;;;5056153;28;20037;-74
2021/06/24 14:06:37;;;;;;;11.48;4.35;;;;;;;;;;5055954;28;20533;-74
2021/06/24 14:09:11;;;;;;;9.45;4.40;;;;;;;;;;5056086;28;20459;-75
2021/06/24 14:11:39;;;;;;;13.27;4.35;;;;;;;;;;5056394;28;20067;-76
2021/06/24 14:14:08;;;;;;;9.48;4.30;;;;;;;;;;5055813;28;20421;-77
2021/06/24 14:16:35;;;;;;;8.63;4.10;;;;;;;;;;5055950;28;20033;-77
2021/06/24 14:19:02;;;;;;;10.75;4.25;;;;;;;;;;5056100;28;20037;-77
2021/06/24 14:21:28;;;;;;;7.18;3.72;;;;;;;;;;5055791;28;20483;-77
2021/06/24 14:23:55;;;;;;;9.32;4.40;;;;;;;;;;5055672;28;20041;-77
2021/06/24 14:26:22;;;;;;;9.13;4.18;;;;;;;;;;5055320;28;20072;-77
2021/06/24 14:28:47;;;;;;;11.68;3.55;;;;;;;;;;5067738;28;20039;-77
2021/06/24 14:31:13;;;;;;;8.45;3.85;;;;;;;;;;5074938;28;20028;-77
2021/06/24 14:33:38;;;;;;;9.57;3.95;;;;;;;;;;5075555;28;20028;-77
2021/06/24 14:36:06;;;;;;;9.82;4.03;;;;;;;;;;5073968;28;20036;-77
2021/06/24 14:38:31;;;;;;;9.43;4.03;;;;;;;;;;5075276;28;20047;-77
2021/06/24 14:40:58;;;;;;;8.50;3.40;;;;;;;;;;5075557;28;20036;-77
2021/06/24 14:43:25;;;;;;;10.65;3.40;;;;;;;;;;5077350;28;20029;-77
2021/06/24 14:45:52;;;;;;;7.18;3.85;;;;;;;;;;5072157;28;20076;-77
2021/06/24 14:48:18;;;;;;;10.68;4.35;;;;;;;;;;5073629;28;20482;-77
2021/06/24 14:50:45;;;;;;;8.13;4.43;;;;;;;;;;5073625;28;20037;-76
2021/06/24 14:53:11;;;;;;;7.45;3.80;;;;;;;;;;5077143;28;20029;-80
2021/06/24 14:55:36;;;;;;;10.20;6.00;;;;;;;;;;5077888;28;20028;-80
2021/06/24 14:58:07;;;;;;;7.90;4.65;;;;;;;;;;5077271;28;20032;-78
2021/06/24 15:00:33;;;;;;;7.80;4.00;;;;;;;;;;5077499;28;20044;-78